»·PEaware :: UAL919 EGLL-KIAD

UAL919 :: EGLL-KIAD

FLIGHT INFORMATION

Flight Status: Arrived
Operator:
United Airlines
More flights by this operator :: More flights under this callsign
Pilot: Andrew J. (13363)
Aircraft: Unknown
(B788)
More flights by this aircraft type
Origin: EGLL Heathrow
United Kingdom
Destination: KIAD Washington Dulles Intl
United States
More flights between these airports :: More routes between these airports
Route: CPT3F CPT UL9 KENET UN14 BAKUR DOGAL/M084F390 NATE ALLRY/N0485F400 N360A TOPPS/N0487F430 ENE BAF HYPER7
File this flight plan on PilotEdge
Remarks: PBN / A1B1C1D1L1O1S2 NAV / RNVD1E2A1 DOF / 180602 REG / N888SB EET / EISN0029 EGGX0123 55N020W0133 CZQX0213 53N040W0259 51N050W0345 CZQM0447 KZBW0524 KZNY0613 KZDC0643 OPR / UAL PER / D RALT / BIAR BGSF RMK / TCAS SIMBRIEF
Altitude:
(Current/Filed)
40,000ft
Speed:
(Current/Filed)
491kts
Departed: 02-Jun-18 09:34 AM
Arrived: 02-Jun-18 08:36 PM
Distance/Time
Traveled:
3184nm/11:02
Distance/Time
To Go:
Arrived

Flight Plot

Page will automatically refresh every two minutes.

Flight plan parsing failed; only flown route is shown


Map Options




Map Legend


Flown Route
Filed Route
Departure Airport
Arrival Airport
Navaid (VOR, NDB)
Fix

Horizontal Profiles

Position Reports

Time Latitude Longitude Heading Altitude Ground
Speed
02-Jun-18 09:20 51.470200 -0.442002 268 96ft 0kts
02-Jun-18 09:21 51.470242 -0.441195 257 96ft 2kts
02-Jun-18 09:22 51.470569 -0.440566 179 96ft 2kts
02-Jun-18 09:23 51.470716 -0.440567 179 96ft 0kts
02-Jun-18 09:24 51.470636 -0.440566 179 96ft 2kts
02-Jun-18 09:25 51.468837 -0.440536 179 96ft 10kts
02-Jun-18 09:26 51.466679 -0.438535 88 96ft 13kts
02-Jun-18 09:27 51.466424 -0.436181 151 96ft 0kts
02-Jun-18 09:28 51.466421 -0.436179 151 96ft 0kts
02-Jun-18 09:29 51.466419 -0.436176 151 96ft 0kts
02-Jun-18 09:30 51.466416 -0.436174 151 96ft 0kts
02-Jun-18 09:31 51.466413 -0.436172 151 96ft 0kts
02-Jun-18 09:32 51.466105 -0.436077 172 96ft 4kts
02-Jun-18 09:33 51.464956 -0.436716 264 96ft 4kts
02-Jun-18 09:34 51.464736 -0.474213 268 299ft 177kts
02-Jun-18 09:35 51.462740 -0.562327 265 3506ft 229kts
02-Jun-18 09:36 51.458734 -0.674446 264 6260ft 263kts
02-Jun-18 09:37 51.454643 -0.791035 266 6021ft 261kts
02-Jun-18 09:38 51.455866 -0.913206 279 9939ft 270kts
02-Jun-18 09:39 51.472238 -1.048679 279 12167ft 344kts
02-Jun-18 09:40 51.490111 -1.206544 278 15316ft 368kts
02-Jun-18 09:41 51.510374 -1.371659 279 18199ft 384kts
02-Jun-18 09:42 51.543659 -1.539180 293 20653ft 404kts
02-Jun-18 09:43 51.590514 -1.706829 292 22850ft 419kts
02-Jun-18 09:44 51.638604 -1.881684 292 24798ft 433kts
02-Jun-18 09:45 51.687762 -2.061755 292 26512ft 447kts
02-Jun-18 09:46 51.738132 -2.248004 292 28048ft 458kts
02-Jun-18 09:47 51.789417 -2.439423 292 29546ft 469kts
02-Jun-18 09:48 51.831413 -2.640064 280 31089ft 477kts
02-Jun-18 09:49 51.859072 -2.849855 281 33220ft 472kts
02-Jun-18 09:50 51.886710 -3.057661 280 35044ft 471kts
02-Jun-18 09:51 51.913730 -3.264766 280 36688ft 471kts
02-Jun-18 09:52 51.940499 -3.472527 280 38176ft 471kts
02-Jun-18 09:53 51.967116 -3.682060 280 39441ft 474kts
02-Jun-18 09:54 51.993366 -3.891751 280 40136ft 479kts
02-Jun-18 09:55 52.019772 -4.106013 280 40136ft 486kts
02-Jun-18 09:56 52.045934 -4.321741 280 40145ft 488kts
02-Jun-18 09:57 52.071780 -4.538379 280 40147ft 489kts
02-Jun-18 09:58 52.097341 -4.756238 280 40134ft 489kts
02-Jun-18 09:59 52.122514 -4.973692 279 40136ft 490kts
02-Jun-18 10:00 52.149214 -5.190822 284 40147ft 490kts
02-Jun-18 10:01 52.189868 -5.403287 286 40137ft 490kts
02-Jun-18 10:02 52.229594 -5.615425 286 40119ft 489kts
02-Jun-18 10:03 52.275744 -5.824899 291 40121ft 489kts
02-Jun-18 10:04 52.324352 -6.032104 290 40113ft 489kts
02-Jun-18 10:05 52.372502 -6.239721 290 40106ft 489kts
02-Jun-18 10:06 52.420430 -6.448470 290 40109ft 489kts
02-Jun-18 10:07 52.467905 -6.657288 290 40113ft 489kts
02-Jun-18 10:08 52.515034 -6.866654 290 40104ft 490kts
02-Jun-18 10:09 52.561978 -7.077304 289 40100ft 490kts
02-Jun-18 10:10 52.608396 -7.287713 289 40109ft 490kts
02-Jun-18 10:11 52.654571 -7.499172 289 40108ft 490kts
02-Jun-18 10:12 52.700262 -7.710557 289 40094ft 490kts
02-Jun-18 10:13 52.745587 -7.922496 289 40103ft 490kts
02-Jun-18 10:14 52.790710 -8.135632 288 40094ft 490kts
02-Jun-18 10:15 52.835287 -8.348469 288 40082ft 491kts
02-Jun-18 10:16 52.879531 -8.561967 288 40085ft 491kts
02-Jun-18 10:17 52.923577 -8.776812 288 40093ft 491kts
02-Jun-18 10:18 52.967099 -8.991419 288 40085ft 492kts
02-Jun-18 10:19 53.010231 -9.206445 288 40079ft 492kts
02-Jun-18 10:20 53.053153 -9.422802 288 40087ft 492kts
02-Jun-18 10:21 53.095576 -9.639046 288 40097ft 492kts
02-Jun-18 10:22 53.137759 -9.856506 287 40091ft 492kts
02-Jun-18 10:23 53.179401 -10.073637 287 40094ft 492kts
02-Jun-18 10:24 53.220638 -10.291139 287 40104ft 492kts
02-Jun-18 10:25 53.261621 -10.509792 287 40100ft 493kts
02-Jun-18 10:26 53.302111 -10.728442 287 40091ft 493kts
02-Jun-18 10:27 53.342208 -10.947514 287 40097ft 493kts
02-Jun-18 10:28 53.382066 -11.167767 287 40106ft 493kts
02-Jun-18 10:29 53.421328 -11.387638 286 40099ft 493kts
02-Jun-18 10:30 53.460381 -11.608765 286 40092ft 493kts
02-Jun-18 10:31 53.498851 -11.829446 286 40100ft 493kts
02-Jun-18 10:32 53.536896 -12.050312 286 40106ft 493kts
02-Jun-18 10:33 53.574645 -12.272328 286 40096ft 493kts
02-Jun-18 10:34 53.611883 -12.494120 286 40094ft 493kts
02-Jun-18 10:35 53.648711 -12.716293 286 40105ft 493kts
02-Jun-18 10:36 53.685238 -12.939534 285 40106ft 492kts
02-Jun-18 10:37 53.721203 -13.162254 285 40096ft 492kts
02-Jun-18 10:38 53.756838 -13.385881 285 40097ft 492kts
02-Jun-18 10:39 53.791919 -13.609010 285 40107ft 491kts
02-Jun-18 10:40 53.826571 -13.832417 285 40105ft 491kts
02-Jun-18 10:41 53.860912 -14.056879 285 40101ft 491kts
02-Jun-18 10:42 53.894712 -14.280896 284 40111ft 491kts
02-Jun-18 10:43 53.928076 -14.505156 284 40121ft 491kts
02-Jun-18 10:44 53.961153 -14.730676 284 40114ft 491kts
02-Jun-18 10:45 53.993705 -14.955820 284 40109ft 491kts
02-Jun-18 10:46 54.039243 -15.174377 292 40108ft 491kts
02-Jun-18 10:47 54.087761 -15.391896 291 40120ft 490kts
02-Jun-18 10:48 54.135684 -15.609049 291 40126ft 490kts
02-Jun-18 10:49 54.183319 -15.827263 291 40119ft 489kts
02-Jun-18 10:50 54.230392 -16.045194 291 40118ft 489kts
02-Jun-18 10:51 54.277066 -16.263598 291 40130ft 489kts
02-Jun-18 10:52 54.323517 -16.483317 291 40131ft 490kts
02-Jun-18 10:53 54.369450 -16.702946 290 40123ft 490kts
02-Jun-18 10:54 54.415004 -16.923186 290 40126ft 490kts
02-Jun-18 10:55 54.460322 -17.144725 290 40138ft 490kts
02-Jun-18 10:56 54.505081 -17.365983 290 40137ft 490kts
02-Jun-18 10:57 54.549439 -17.587752 290 40129ft 490kts
02-Jun-18 10:58 54.593520 -17.810652 290 40136ft 490kts
02-Jun-18 10:59 54.637042 -18.033272 289 40146ft 490kts
02-Jun-18 11:00 54.680292 -18.257094 289 40143ft 490kts
02-Jun-18 11:01 54.723000 -18.480694 289 40137ft 490kts
02-Jun-18 11:02 54.765300 -18.704792 289 40146ft 490kts
02-Jun-18 11:03 54.807332 -18.930128 289 40154ft 490kts
02-Jun-18 11:04 54.841932 -19.117699 289 40144ft 490kts
02-Jun-18 11:05 54.883059 -19.343161 288 40154ft 490kts
02-Jun-18 11:06 54.923900 -19.569820 288 40163ft 490kts
02-Jun-18 11:07 54.964213 -19.796278 288 40159ft 491kts
02-Jun-18 11:08 54.998752 -20.025595 282 40152ft 491kts
02-Jun-18 11:09 55.010906 -20.263094 274 40162ft 493kts
02-Jun-18 11:10 55.020023 -20.501409 275 40201ft 494kts
02-Jun-18 11:11 55.028606 -20.741048 274 40193ft 494kts
02-Jun-18 11:12 55.036720 -20.980032 274 40202ft 494kts
02-Jun-18 11:13 55.044365 -21.219138 274 40211ft 494kts
02-Jun-18 11:14 55.051564 -21.459098 274 40205ft 494kts
02-Jun-18 11:15 55.058266 -21.698259 274 40200ft 494kts
02-Jun-18 11:16 55.064502 -21.937538 273 40211ft 494kts
02-Jun-18 11:17 55.070305 -22.177653 273 40216ft 494kts
02-Jun-18 11:18 55.075575 -22.417074 273 40208ft 494kts
02-Jun-18 11:19 55.080418 -22.657385 273 40205ft 494kts
02-Jun-18 11:20 55.084774 -22.897017 273 40160ft 494kts
02-Jun-18 11:21 55.088693 -23.137488 272 40170ft 494kts
02-Jun-18 11:22 55.092083 -23.377319 272 40174ft 495kts
02-Jun-18 11:23 55.095046 -23.618240 272 40165ft 495kts
02-Jun-18 11:24 55.097525 -23.858556 272 40137ft 496kts
02-Jun-18 11:25 55.099517 -24.099034 272 40144ft 496kts
02-Jun-18 11:26 55.101046 -24.340560 272 40152ft 496kts
02-Jun-18 11:27 55.102098 -24.581341 271 40145ft 496kts
02-Jun-18 11:28 55.102676 -24.822202 271 40138ft 496kts
02-Jun-18 11:29 55.102778 -25.063874 271 40146ft 496kts
02-Jun-18 11:30 55.102426 -25.304729 271 40152ft 497kts
02-Jun-18 11:31 55.101571 -25.546457 271 40143ft 497kts
02-Jun-18 11:32 55.100242 -25.787480 270 40139ft 497kts
02-Jun-18 11:33 55.098423 -26.028487 270 40149ft 497kts
02-Jun-18 11:34 55.096140 -26.270333 270 40151ft 497kts
02-Jun-18 11:35 55.093383 -26.511420 270 40139ft 497kts
02-Jun-18 11:36 55.090148 -26.752522 269 40137ft 497kts
02-Jun-18 11:37 55.086422 -26.994459 269 40186ft 497kts
02-Jun-18 11:38 55.082246 -27.235636 269 40175ft 498kts
02-Jun-18 11:39 55.077546 -27.477567 269 40178ft 498kts
02-Jun-18 11:40 55.072411 -27.718852 268 40187ft 498kts
02-Jun-18 11:41 55.066771 -27.960347 268 40182ft 499kts
02-Jun-18 11:42 55.060625 -28.202688 268 40172ft 499kts
02-Jun-18 11:43 55.054026 -28.444362 268 40177ft 499kts
02-Jun-18 11:44 55.046967 -28.685974 267 40185ft 499kts
02-Jun-18 11:45 55.039379 -28.928363 267 40178ft 499kts
02-Jun-18 11:46 55.031341 -29.169825 267 40170ft 499kts
02-Jun-18 11:47 55.022806 -29.411188 267 40176ft 499kts
02-Jun-18 11:48 55.013784 -29.653251 267 40183ft 499kts
02-Jun-18 11:49 55.003915 -29.894361 264 40177ft 499kts
02-Jun-18 11:50 54.982013 -30.133668 255 40169ft 500kts
02-Jun-18 11:51 54.945203 -30.367044 255 40178ft 501kts
02-Jun-18 11:52 54.909078 -30.600547 255 40180ft 501kts
02-Jun-18 11:53 54.872316 -30.834381 254 40169ft 500kts
02-Jun-18 11:54 54.835217 -31.066918 254 40169ft 500kts
02-Jun-18 11:55 54.797740 -31.298765 254 40135ft 499kts
02-Jun-18 11:56 54.759741 -31.530596 254 40074ft 499kts
02-Jun-18 11:57 54.721471 -31.760916 254 40066ft 498kts
02-Jun-18 11:58 54.682872 -31.990246 254 40056ft 497kts
02-Jun-18 11:59 54.643797 -32.219352 253 40061ft 495kts
02-Jun-18 12:00 54.604510 -32.446799 253 40065ft 495kts
02-Jun-18 12:01 54.564670 -32.674510 253 40050ft 495kts
02-Jun-18 12:02 54.524523 -32.901114 253 40047ft 495kts
02-Jun-18 12:03 54.483972 -33.127154 252 40055ft 495kts
02-Jun-18 12:04 54.442910 -33.353243 252 40053ft 494kts
02-Jun-18 12:05 54.401684 -33.577485 252 40040ft 492kts
02-Jun-18 12:06 54.360176 -33.800556 252 40041ft 490kts
02-Jun-18 12:07 54.318266 -34.023134 252 40049ft 489kts
02-Jun-18 12:08 54.276185 -34.243979 251 40040ft 488kts
02-Jun-18 12:09 54.233600 -34.464965 251 40030ft 488kts
02-Jun-18 12:10 54.190706 -34.684980 251 40035ft 489kts
02-Jun-18 12:11 54.147336 -34.904923 250 40039ft 490kts
02-Jun-18 12:12 54.103343 -35.125509 249 40027ft 490kts
02-Jun-18 12:13 54.059090 -35.344923 249 40022ft 490kts
02-Jun-18 12:14 54.014464 -35.563752 249 40030ft 490kts
02-Jun-18 12:15 53.969402 -35.782331 249 40028ft 488kts
02-Jun-18 12:16 53.924037 -35.999921 248 40014ft 488kts
02-Jun-18 12:17 53.878292 -36.216977 248 40014ft 487kts
02-Jun-18 12:18 53.832366 -36.432648 248 40043ft 487kts
02-Jun-18 12:19 53.785943 -36.648324 247 40033ft 486kts
02-Jun-18 12:20 53.739396 -36.862330 247 40037ft 485kts
02-Jun-18 12:21 53.692597 -37.075267 247 40042ft 484kts
02-Jun-18 12:22 53.645344 -37.288084 246 39994ft 483kts
02-Jun-18 12:23 53.597910 -37.499545 246 39977ft 483kts
02-Jun-18 12:24 53.550116 -37.710470 246 39972ft 483kts
02-Jun-18 12:25 53.501783 -37.921645 246 39980ft 483kts
02-Jun-18 12:26 53.453240 -38.131713 245 39976ft 483kts
02-Jun-18 12:27 53.404305 -38.341331 245 39966ft 483kts
02-Jun-18 12:28 53.354864 -38.551085 245 39972ft 483kts
02-Jun-18 12:29 53.305209 -38.759708 244 39976ft 483kts
02-Jun-18 12:30 53.255038 -38.968469 244 39965ft 483kts
02-Jun-18 12:31 53.204666 -39.176096 243 39960ft 483kts
02-Jun-18 12:32 53.153921 -39.383209 243 39971ft 483kts
02-Jun-18 12:33 53.102653 -39.590600 243 39964ft 483kts
02-Jun-18 12:34 53.051156 -39.796918 243 39952ft 484kts
02-Jun-18 12:35 53.001181 -40.004118 247 39960ft 484kts
02-Jun-18 12:36 52.966576 -40.221456 251 39958ft 488kts
02-Jun-18 12:37 52.933031 -40.439970 251 39946ft 490kts
02-Jun-18 12:38 52.898966 -40.659349 251 39947ft 491kts
02-Jun-18 12:39 52.864563 -40.877861 251 39954ft 491kts
02-Jun-18 12:40 52.829712 -41.096226 250 39946ft 492kts
02-Jun-18 12:41 52.794314 -41.315244 250 39935ft 492kts
02-Jun-18 12:42 52.758579 -41.533471 250 39940ft 493kts
02-Jun-18 12:43 52.722423 -41.751545 250 39944ft 493kts
02-Jun-18 12:44 52.685717 -41.970109 249 39931ft 494kts
02-Jun-18 12:45 52.648696 -42.187879 249 39924ft 494kts
02-Jun-18 12:46 52.611207 -42.405517 249 39930ft 495kts
02-Jun-18 12:47 52.573200 -42.623555 249 39930ft 495kts
02-Jun-18 12:48 52.534910 -42.840566 249 39917ft 495kts
02-Jun-18 12:49 52.496084 -43.057879 249 39912ft 495kts
02-Jun-18 12:50 52.456969 -43.274328 249 39918ft 496kts
02-Jun-18 12:51 52.417401 -43.490601 249 39915ft 496kts
02-Jun-18 12:52 52.377263 -43.707568 249 39901ft 497kts
02-Jun-18 12:53 52.336777 -43.923742 249 39900ft 498kts
02-Jun-18 12:54 52.295874 -44.139780 249 39907ft 498kts
02-Jun-18 12:55 52.254399 -44.356237 248 39894ft 498kts
02-Jun-18 12:56 52.212685 -44.571537 248 39880ft 498kts
02-Jun-18 12:57 52.170592 -44.786328 248 39883ft 498kts
02-Jun-18 12:58 52.127986 -45.001371 248 39892ft 498kts
02-Jun-18 12:59 52.085124 -45.215304 249 39876ft 498kts
02-Jun-18 13:00 52.041698 -45.429682 248 39868ft 498kts
02-Jun-18 13:01 51.997997 -45.643154 248 39920ft 499kts
02-Jun-18 13:02 51.953832 -45.856550 248 39921ft 500kts
02-Jun-18 13:03 51.909098 -46.070398 248 39929ft 500kts
02-Jun-18 13:04 51.864128 -46.283212 248 39926ft 500kts
02-Jun-18 13:05 51.818727 -46.495619 248 39914ft 500kts
02-Jun-18 13:06 51.772751 -46.708602 248 39913ft 501kts
02-Jun-18 13:07 51.726509 -46.920602 248 39922ft 502kts
02-Jun-18 13:08 51.679683 -47.133100 248 39916ft 502kts
02-Jun-18 13:09 51.632627 -47.344445 248 39904ft 502kts
02-Jun-18 13:10 51.585188 -47.555376 248 39907ft 502kts
02-Jun-18 13:11 51.545236 -47.731410 248 39913ft 501kts
02-Jun-18 13:12 51.497168 -47.941252 248 39904ft 501kts
02-Jun-18 13:13 51.448744 -48.150591 248 39898ft 501kts
02-Jun-18 13:14 51.399778 -48.360201 248 39905ft 501kts
02-Jun-18 13:15 51.350577 -48.568788 248 39903ft 502kts
02-Jun-18 13:16 51.300935 -48.777222 248 39895ft 502kts
02-Jun-18 13:17 51.250739 -48.985970 248 39892ft 502kts
02-Jun-18 13:18 51.200322 -49.193633 248 39896ft 503kts
02-Jun-18 13:19 51.149374 -49.401555 248 39902ft 503kts
02-Jun-18 13:20 51.098201 -49.608368 248 39888ft 502kts
02-Jun-18 13:21 51.046693 -49.814639 248 39879ft 502kts
02-Jun-18 13:22 50.995061 -50.021436 248 39887ft 502kts
02-Jun-18 13:23 50.945246 -50.228103 249 39889ft 502kts
02-Jun-18 13:24 50.895251 -50.434159 249 39879ft 501kts
02-Jun-18 13:25 50.844796 -50.640312 249 39876ft 501kts
02-Jun-18 13:26 50.794184 -50.845149 249 39885ft 500kts
02-Jun-18 13:27 50.743267 -51.049333 249 39882ft 500kts
02-Jun-18 13:28 50.691935 -51.253297 249 39870ft 499kts
02-Jun-18 13:29 50.640495 -51.455863 249 39844ft 498kts
02-Jun-18 13:30 50.588610 -51.658397 250 39851ft 497kts
02-Jun-18 13:31 50.536541 -51.859686 250 39857ft 497kts
02-Jun-18 13:32 50.485655 -52.061298 252 39846ft 496kts
02-Jun-18 13:33 50.438231 -52.264602 252 39886ft 494kts
02-Jun-18 13:34 50.390605 -52.466162 252 39875ft 493kts
02-Jun-18 13:35 50.342739 -52.666826 252 39876ft 492kts
02-Jun-18 13:36 50.294556 -52.867120 252 39846ft 489kts
02-Jun-18 13:37 50.246438 -53.065350 251 39837ft 487kts
02-Jun-18 13:38 50.198068 -53.262749 251 39831ft 484kts
02-Jun-18 13:39 50.149784 -53.458101 251 39838ft 482kts
02-Jun-18 13:40 50.101408 -53.652110 251 39847ft 480kts
02-Jun-18 13:41 50.052727 -53.845695 251 39835ft 478kts
02-Jun-18 13:42 50.003992 -54.037805 251 39844ft 478kts
02-Jun-18 13:43 49.954975 -54.229422 251 39847ft 477kts
02-Jun-18 13:44 49.905526 -54.421071 251 39838ft 477kts
02-Jun-18 13:45 49.856035 -54.611277 251 39832ft 475kts
02-Jun-18 13:46 49.806270 -54.800948 250 39860ft 473kts
02-Jun-18 13:47 49.756584 -54.988788 250 39855ft 471kts
02-Jun-18 13:48 49.706855 -55.175282 250 39850ft 468kts
02-Jun-18 13:49 49.656910 -55.361062 249 39850ft 466kts
02-Jun-18 13:50 49.607049 -55.545068 249 39863ft 464kts
02-Jun-18 13:51 49.557072 -55.728088 249 39864ft 463kts
02-Jun-18 13:52 49.506731 -55.910943 249 39862ft 462kts
02-Jun-18 13:53 49.456198 -56.093143 248 39876ft 461kts
02-Jun-18 13:54 49.405760 -56.273568 248 39886ft 459kts
02-Jun-18 13:55 49.355253 -56.452881 248 39877ft 457kts
02-Jun-18 13:56 49.304504 -56.631707 248 39876ft 455kts
02-Jun-18 13:57 49.253853 -56.808853 248 39884ft 454kts
02-Jun-18 13:58 49.203161 -56.984858 248 39885ft 451kts
02-Jun-18 13:59 49.152270 -57.160274 248 39879ft 449kts
02-Jun-18 14:00 49.101503 -57.333997 248 39871ft 448kts
02-Jun-18 14:01 49.050472 -57.507361 247 39876ft 446kts
02-Jun-18 14:02 48.999522 -57.679234 247 39877ft 445kts
02-Jun-18 14:03 48.948480 -57.850232 247 39848ft 443kts
02-Jun-18 14:04 48.897161 -58.020962 247 39830ft 442kts
02-Jun-18 14:05 48.846103 -58.189620 247 39809ft 438kts
02-Jun-18 14:06 48.794951 -58.357497 246 39792ft 436kts
02-Jun-18 14:07 48.743843 -58.524004 246 39784ft 436kts
02-Jun-18 14:08 48.692562 -58.690003 246 39790ft 435kts
02-Jun-18 14:09 48.640922 -58.856066 246 39787ft 435kts
02-Jun-18 14:10 48.589230 -59.021226 246 39785ft 435kts
02-Jun-18 14:11 48.537368 -59.185777 245 39793ft 434kts
02-Jun-18 14:12 48.485178 -59.350303 245 39787ft 434kts
02-Jun-18 14:13 48.432986 -59.513764 245 39785ft 433kts
02-Jun-18 14:14 48.380415 -59.677369 244 39798ft 433kts
02-Jun-18 14:15 48.327834 -59.839957 245 39812ft 433kts
02-Jun-18 14:16 48.275061 -60.002086 244 39835ft 432kts
02-Jun-18 14:17 48.221936 -60.164242 244 39847ft 432kts
02-Jun-18 14:18 48.168745 -60.325570 244 39847ft 432kts
02-Jun-18 14:19 48.115236 -60.486858 243 39848ft 433kts
02-Jun-18 14:20 48.061238 -60.648641 243 39866ft 434kts
02-Jun-18 14:21 48.007024 -60.809968 243 39878ft 435kts
02-Jun-18 14:22 47.952309 -60.971808 243 39876ft 436kts
02-Jun-18 14:23 47.897467 -61.133027 243 39871ft 437kts
02-Jun-18 14:24 47.842205 -61.294440 243 39881ft 439kts
02-Jun-18 14:25 47.786358 -61.456578 243 39888ft 440kts
02-Jun-18 14:26 47.730326 -61.618210 242 39881ft 441kts
02-Jun-18 14:27 47.673935 -61.779920 242 39885ft 442kts
02-Jun-18 14:28 47.617018 -61.942110 242 39903ft 442kts
02-Jun-18 14:29 47.559956 -62.103690 242 39892ft 443kts
02-Jun-18 14:30 47.502365 -62.265780 242 39889ft 444kts
02-Jun-18 14:31 47.444741 -62.426984 242 39905ft 444kts
02-Jun-18 14:32 47.386901 -62.587776 242 39893ft 444kts
02-Jun-18 14:33 47.328651 -62.748759 242 39895ft 444kts
02-Jun-18 14:34 47.270305 -62.909033 242 39879ft 444kts
02-Jun-18 14:35 47.211682 -63.069075 242 39882ft 445kts
02-Jun-18 14:36 47.152539 -63.229589 242 39909ft 446kts
02-Jun-18 14:37 47.093296 -63.389418 242 39901ft 446kts
02-Jun-18 14:38 47.033536 -63.549625 242 39912ft 447kts
02-Jun-18 14:39 46.973751 -63.709024 242 39915ft 447kts
02-Jun-18 14:40 46.913701 -63.868143 242 39909ft 447kts
02-Jun-18 14:41 46.853251 -64.027389 243 39943ft 447kts
02-Jun-18 14:42 46.792682 -64.186040 242 39938ft 448kts
02-Jun-18 14:43 46.731541 -64.345177 243 39948ft 449kts
02-Jun-18 14:44 46.670406 -64.503420 242 39960ft 449kts
02-Jun-18 14:45 46.609046 -64.661318 242 39955ft 449kts
02-Jun-18 14:46 46.547201 -64.819542 242 39971ft 449kts
02-Jun-18 14:47 46.485264 -64.977076 242 39969ft 450kts
02-Jun-18 14:48 46.422810 -65.135013 242 39959ft 450kts
02-Jun-18 14:49 46.360329 -65.292106 243 39957ft 451kts
02-Jun-18 14:50 46.297600 -65.448959 243 39967ft 451kts
02-Jun-18 14:51 46.234363 -65.606117 243 39966ft 451kts
02-Jun-18 14:52 46.171135 -65.762435 243 39951ft 452kts
02-Jun-18 14:53 46.107676 -65.918418 243 39970ft 451kts
02-Jun-18 14:54 46.043843 -66.074423 242 39950ft 451kts
02-Jun-18 14:55 45.979988 -66.229607 242 39951ft 451kts
02-Jun-18 14:56 45.915743 -66.384834 242 39964ft 451kts
02-Jun-18 14:57 45.851604 -66.539031 242 39965ft 450kts
02-Jun-18 14:58 45.787316 -66.692643 242 39954ft 449kts
02-Jun-18 14:59 45.722726 -66.846178 242 39956ft 449kts
02-Jun-18 15:00 45.658252 -66.998598 242 39967ft 448kts
02-Jun-18 15:01 45.593629 -67.150516 242 39965ft 448kts
02-Jun-18 15:02 45.528657 -67.302461 242 39956ft 447kts
02-Jun-18 15:03 45.463680 -67.453596 242 39965ft 448kts
02-Jun-18 15:04 45.398271 -67.604911 242 39974ft 448kts
02-Jun-18 15:05 45.329261 -67.752394 240 39965ft 449kts
02-Jun-18 15:06 45.248228 -67.887778 232 39984ft 453kts
02-Jun-18 15:07 45.163310 -68.020797 233 39986ft 454kts
02-Jun-18 15:08 45.078511 -68.153105 232 39989ft 454kts
02-Jun-18 15:09 44.993654 -68.284855 232 39970ft 453kts
02-Jun-18 15:10 44.908591 -68.416298 232 39984ft 452kts
02-Jun-18 15:11 44.823791 -68.546726 232 39975ft 451kts
02-Jun-18 15:12 44.738991 -68.676557 232 39970ft 451kts
02-Jun-18 15:13 44.653861 -68.806256 232 39971ft 450kts
02-Jun-18 15:14 44.569036 -68.934912 232 39972ft 449kts
02-Jun-18 15:15 44.483878 -69.063445 232 39956ft 448kts
02-Jun-18 15:16 44.398980 -69.191032 232 39963ft 448kts
02-Jun-18 15:17 44.313924 -69.318278 231 39949ft 448kts
02-Jun-18 15:18 44.228489 -69.445495 231 39938ft 448kts
02-Jun-18 15:19 44.143315 -69.571745 231 39963ft 447kts
02-Jun-18 15:20 44.072361 -69.676483 231 39953ft 446kts
02-Jun-18 15:21 43.986895 -69.802136 231 39942ft 446kts
02-Jun-18 15:22 43.901694 -69.926832 230 39946ft 445kts
02-Jun-18 15:23 43.816090 -70.051539 230 39949ft 445kts
02-Jun-18 15:24 43.730670 -70.175479 230 39925ft 445kts
02-Jun-18 15:25 43.645070 -70.299094 230 39917ft 445kts
02-Jun-18 15:26 43.559063 -70.422771 230 39928ft 446kts
02-Jun-18 15:27 43.473143 -70.545766 230 39932ft 446kts
02-Jun-18 15:28 43.390889 -70.672839 234 39920ft 444kts
02-Jun-18 15:29 43.313770 -70.805907 234 39928ft 444kts
02-Jun-18 15:30 43.236583 -70.937830 234 39906ft 444kts
02-Jun-18 15:31 43.158966 -71.069894 234 39908ft 444kts
02-Jun-18 15:32 43.081435 -71.201272 234 39913ft 444kts
02-Jun-18 15:33 43.003707 -71.332411 234 39900ft 444kts
02-Jun-18 15:34 42.925535 -71.463678 233 39884ft 444kts
02-Jun-18 15:35 42.847518 -71.594113 233 39900ft 444kts
02-Jun-18 15:36 42.769413 -71.724117 233 39908ft 444kts
02-Jun-18 15:37 42.690878 -71.854248 233 39927ft 444kts
02-Jun-18 15:38 42.612587 -71.983429 233 39925ft 443kts
02-Jun-18 15:39 42.533872 -72.112725 233 39912ft 443kts
02-Jun-18 15:40 42.455293 -72.241273 232 39918ft 443kts
02-Jun-18 15:41 42.376561 -72.369472 232 39915ft 443kts
02-Jun-18 15:42 42.297447 -72.497735 232 39885ft 443kts
02-Jun-18 15:43 42.218418 -72.625337 232 39885ft 444kts
02-Jun-18 15:44 42.140083 -72.753599 233 39892ft 443kts
02-Jun-18 15:45 42.063654 -72.884418 234 39896ft 443kts
02-Jun-18 15:46 41.987225 -73.014578 233 39890ft 444kts
02-Jun-18 15:47 41.910177 -73.145119 233 39891ft 445kts
02-Jun-18 15:48 41.833071 -73.275060 233 39914ft 446kts
02-Jun-18 15:49 41.755891 -73.404829 233 39920ft 446kts
02-Jun-18 15:50 41.678319 -73.534739 233 39897ft 446kts
02-Jun-18 15:51 41.600914 -73.663818 233 39905ft 445kts
02-Jun-18 15:52 41.522917 -73.791958 230 39901ft 445kts
02-Jun-18 15:53 41.437553 -73.912713 227 39887ft 447kts
02-Jun-18 15:54 41.349955 -74.030285 227 39912ft 448kts
02-Jun-18 15:55 41.261879 -74.148284 227 39896ft 449kts
02-Jun-18 15:56 41.177428 -74.270051 238 39893ft 449kts
02-Jun-18 15:57 41.114495 -74.409607 239 39885ft 449kts
02-Jun-18 15:58 41.048952 -74.551029 239 39894ft 449kts
02-Jun-18 15:59 40.983421 -74.692061 239 39904ft 450kts
02-Jun-18 16:00 40.918313 -74.831492 239 39889ft 441kts
02-Jun-18 16:01 40.853793 -74.969032 239 39884ft 438kts
02-Jun-18 16:02 40.789584 -75.105221 238 39893ft 437kts
02-Jun-18 16:03 40.725009 -75.241576 238 39898ft 437kts
02-Jun-18 16:04 40.704809 -75.284128 238 39887ft 437kts
02-Jun-18 16:05 40.704809 -75.284128 238 39887ft 437kts
02-Jun-18 16:06 40.704809 -75.284128 238 39887ft 437kts
02-Jun-18 16:07 40.704809 -75.284128 238 39887ft 437kts
02-Jun-18 16:08 40.704809 -75.284128 238 39887ft 437kts
02-Jun-18 16:09 40.704809 -75.284128 238 39887ft 437kts
02-Jun-18 16:10 40.704809 -75.284128 238 39887ft 437kts
02-Jun-18 16:11 40.704809 -75.284128 238 39887ft 437kts
02-Jun-18 16:12 40.704809 -75.284128 238 39887ft 437kts
02-Jun-18 16:13 40.704809 -75.284128 238 39887ft 437kts
02-Jun-18 16:14 40.704809 -75.284128 238 39887ft 437kts
02-Jun-18 16:15 40.704809 -75.284128 238 39887ft 437kts
02-Jun-18 16:16 40.704809 -75.284128 238 39887ft 437kts
02-Jun-18 16:17 40.704809 -75.284128 238 39887ft 437kts
02-Jun-18 16:18 40.704809 -75.284128 238 39887ft 437kts
02-Jun-18 16:19 40.704809 -75.284128 238 39887ft 437kts
02-Jun-18 16:20 40.704809 -75.284128 238 39887ft 437kts
02-Jun-18 16:21 40.704809 -75.284128 238 39887ft 437kts
02-Jun-18 16:22 40.704809 -75.284128 238 39887ft 437kts
02-Jun-18 16:23 40.704809 -75.284128 238 39887ft 437kts
02-Jun-18 16:24 40.704809 -75.284128 238 39887ft 437kts
02-Jun-18 16:25 40.704809 -75.284128 238 39887ft 437kts
02-Jun-18 16:26 40.704809 -75.284128 238 39887ft 437kts
02-Jun-18 16:27 40.704809 -75.284128 238 39887ft 437kts
02-Jun-18 16:28 40.704809 -75.284128 238 39887ft 437kts
02-Jun-18 16:29 40.704809 -75.284128 238 39887ft 437kts
02-Jun-18 16:30 40.704809 -75.284128 238 39887ft 437kts
02-Jun-18 16:31 40.704809 -75.284128 238 39887ft 437kts
02-Jun-18 16:32 40.704809 -75.284128 238 39887ft 437kts
02-Jun-18 16:33 40.704809 -75.284128 238 39887ft 437kts
02-Jun-18 16:34 40.704809 -75.284128 238 39887ft 437kts
02-Jun-18 16:35 40.704809 -75.284128 238 39887ft 437kts
02-Jun-18 16:36 40.704809 -75.284128 238 39887ft 437kts
02-Jun-18 16:37 40.704809 -75.284128 238 39887ft 437kts
02-Jun-18 16:38 40.704809 -75.284128 238 39887ft 437kts
02-Jun-18 16:39 40.704809 -75.284128 238 39887ft 437kts
02-Jun-18 16:40 40.704809 -75.284128 238 39887ft 437kts
02-Jun-18 16:41 40.704809 -75.284128 238 39887ft 437kts
02-Jun-18 16:42 40.704809 -75.284128 238 39887ft 437kts
02-Jun-18 16:43 40.704809 -75.284128 238 39887ft 437kts
02-Jun-18 16:44 40.704809 -75.284128 238 39887ft 437kts
02-Jun-18 16:45 40.704809 -75.284128 238 39887ft 437kts
02-Jun-18 16:46 40.704809 -75.284128 238 39887ft 437kts
02-Jun-18 16:47 40.704809 -75.284128 238 39887ft 437kts
02-Jun-18 16:48 40.704809 -75.284128 238 39887ft 437kts
02-Jun-18 16:49 40.704809 -75.284128 238 39887ft 437kts
02-Jun-18 16:50 40.704809 -75.284128 238 39887ft 437kts
02-Jun-18 16:51 40.704809 -75.284128 238 39887ft 437kts
02-Jun-18 16:52 40.704809 -75.284128 238 39887ft 437kts
02-Jun-18 16:53 40.704809 -75.284128 238 39887ft 437kts
02-Jun-18 16:54 40.704809 -75.284128 238 39887ft 437kts
02-Jun-18 16:55 40.704809 -75.284128 238 39887ft 437kts
02-Jun-18 16:56 40.704809 -75.284128 238 39887ft 437kts
02-Jun-18 16:57 40.704809 -75.284128 238 39887ft 437kts
02-Jun-18 16:58 40.704809 -75.284128 238 39887ft 437kts
02-Jun-18 16:59 40.704809 -75.284128 238 39887ft 437kts
02-Jun-18 17:00 40.704809 -75.284128 238 39887ft 437kts
02-Jun-18 17:01 40.704809 -75.284128 238 39887ft 437kts
02-Jun-18 17:02 40.704809 -75.284128 238 39887ft 437kts
02-Jun-18 17:03 40.704809 -75.284128 238 39887ft 437kts
02-Jun-18 17:04 40.704809 -75.284128 238 39887ft 437kts
02-Jun-18 17:05 40.704809 -75.284128 238 39887ft 437kts
02-Jun-18 17:06 40.704809 -75.284128 238 39887ft 437kts
02-Jun-18 17:07 40.704809 -75.284128 238 39887ft 437kts
02-Jun-18 17:08 40.704809 -75.284128 238 39887ft 437kts
02-Jun-18 17:09 40.704809 -75.284128 238 39887ft 437kts
02-Jun-18 17:10 40.704809 -75.284128 238 39887ft 437kts
02-Jun-18 17:11 40.704809 -75.284128 238 39887ft 437kts
02-Jun-18 17:12 40.704809 -75.284128 238 39887ft 437kts
02-Jun-18 17:13 40.704809 -75.284128 238 39887ft 437kts
02-Jun-18 17:14 40.704809 -75.284128 238 39887ft 437kts
02-Jun-18 17:15 40.704809 -75.284128 238 39887ft 437kts
02-Jun-18 17:16 40.704809 -75.284128 238 39887ft 437kts
02-Jun-18 17:17 40.704809 -75.284128 238 39887ft 437kts
02-Jun-18 17:18 40.704809 -75.284128 238 39887ft 437kts
02-Jun-18 17:19 40.704809 -75.284128 238 39887ft 437kts
02-Jun-18 17:20 40.704809 -75.284128 238 39887ft 437kts
02-Jun-18 17:21 40.704809 -75.284128 238 39887ft 437kts
02-Jun-18 17:22 40.704809 -75.284128 238 39887ft 437kts
02-Jun-18 17:23 40.704809 -75.284128 238 39887ft 437kts
02-Jun-18 17:24 40.704809 -75.284128 238 39887ft 437kts
02-Jun-18 17:25 40.704809 -75.284128 238 39887ft 437kts
02-Jun-18 17:26 40.704809 -75.284128 238 39887ft 437kts
02-Jun-18 17:27 40.704809 -75.284128 238 39887ft 437kts
02-Jun-18 17:28 40.704809 -75.284128 238 39887ft 437kts
02-Jun-18 17:29 40.704809 -75.284128 238 39887ft 437kts
02-Jun-18 17:30 40.704809 -75.284128 238 39887ft 437kts
02-Jun-18 17:31 40.704809 -75.284128 238 39887ft 437kts
02-Jun-18 17:32 40.704809 -75.284128 238 39887ft 437kts
02-Jun-18 17:33 40.704809 -75.284128 238 39887ft 437kts
02-Jun-18 17:34 40.704809 -75.284128 238 39887ft 437kts
02-Jun-18 17:35 40.704809 -75.284128 238 39887ft 437kts
02-Jun-18 17:36 40.704809 -75.284128 238 39887ft 437kts
02-Jun-18 17:37 40.704809 -75.284128 238 39887ft 437kts
02-Jun-18 17:38 40.704809 -75.284128 238 39887ft 437kts
02-Jun-18 17:39 40.704809 -75.284128 238 39887ft 437kts
02-Jun-18 17:40 40.704809 -75.284128 238 39887ft 437kts
02-Jun-18 17:41 40.704809 -75.284128 238 39887ft 437kts
02-Jun-18 17:42 40.704809 -75.284128 238 39887ft 437kts
02-Jun-18 17:43 40.704809 -75.284128 238 39887ft 437kts
02-Jun-18 17:44 40.704809 -75.284128 238 39887ft 437kts
02-Jun-18 17:45 40.704809 -75.284128 238 39887ft 437kts
02-Jun-18 17:46 40.704809 -75.284128 238 39887ft 437kts
02-Jun-18 17:47 40.704809 -75.284128 238 39887ft 437kts
02-Jun-18 17:48 40.704809 -75.284128 238 39887ft 437kts
02-Jun-18 17:49 40.704809 -75.284128 238 39887ft 437kts
02-Jun-18 17:50 40.704809 -75.284128 238 39887ft 437kts
02-Jun-18 17:51 40.704809 -75.284128 238 39887ft 437kts
02-Jun-18 17:52 40.704809 -75.284128 238 39887ft 437kts
02-Jun-18 17:53 40.704809 -75.284128 238 39887ft 437kts
02-Jun-18 17:54 40.704809 -75.284128 238 39887ft 437kts
02-Jun-18 17:55 40.704809 -75.284128 238 39887ft 437kts
02-Jun-18 17:56 40.704809 -75.284128 238 39887ft 437kts
02-Jun-18 17:57 40.704809 -75.284128 238 39887ft 437kts
02-Jun-18 17:58 40.704809 -75.284128 238 39887ft 437kts
02-Jun-18 17:59 40.704809 -75.284128 238 39887ft 437kts
02-Jun-18 18:00 40.704809 -75.284128 238 39887ft 437kts
02-Jun-18 18:01 40.704809 -75.284128 238 39887ft 437kts
02-Jun-18 18:02 40.704809 -75.284128 238 39887ft 437kts
02-Jun-18 18:03 40.704809 -75.284128 238 39887ft 437kts
02-Jun-18 18:04 40.704809 -75.284128 238 39887ft 437kts
02-Jun-18 18:05 40.704809 -75.284128 238 39887ft 437kts
02-Jun-18 18:06 40.704809 -75.284128 238 39887ft 437kts
02-Jun-18 18:07 40.704809 -75.284128 238 39887ft 437kts
02-Jun-18 18:08 40.704809 -75.284128 238 39887ft 437kts
02-Jun-18 18:09 40.704809 -75.284128 238 39887ft 437kts
02-Jun-18 18:10 40.704809 -75.284128 238 39887ft 437kts
02-Jun-18 18:11 40.704809 -75.284128 238 39887ft 437kts
02-Jun-18 18:12 40.704809 -75.284128 238 39887ft 437kts
02-Jun-18 18:13 40.704809 -75.284128 238 39887ft 437kts
02-Jun-18 18:14 40.704809 -75.284128 238 39887ft 437kts
02-Jun-18 18:15 40.704809 -75.284128 238 39887ft 437kts
02-Jun-18 18:16 40.704809 -75.284128 238 39887ft 437kts
02-Jun-18 18:17 40.704809 -75.284128 238 39887ft 437kts
02-Jun-18 18:18 40.704809 -75.284128 238 39887ft 437kts
02-Jun-18 18:19 40.704809 -75.284128 238 39887ft 437kts
02-Jun-18 18:20 40.704809 -75.284128 238 39887ft 437kts
02-Jun-18 18:21 40.704809 -75.284128 238 39887ft 437kts
02-Jun-18 18:22 40.704809 -75.284128 238 39887ft 437kts
02-Jun-18 18:23 40.704809 -75.284128 238 39887ft 437kts
02-Jun-18 18:24 40.704809 -75.284128 238 39887ft 437kts
02-Jun-18 18:25 40.704809 -75.284128 238 39887ft 437kts
02-Jun-18 18:26 40.704809 -75.284128 238 39887ft 437kts
02-Jun-18 18:27 40.704809 -75.284128 238 39887ft 437kts
02-Jun-18 18:28 40.704809 -75.284128 238 39887ft 437kts
02-Jun-18 18:29 40.704809 -75.284128 238 39887ft 437kts
02-Jun-18 18:30 40.704809 -75.284128 238 39887ft 437kts
02-Jun-18 18:31 40.704809 -75.284128 238 39887ft 437kts
02-Jun-18 18:32 40.704809 -75.284128 238 39887ft 437kts
02-Jun-18 18:33 40.704809 -75.284128 238 39887ft 437kts
02-Jun-18 18:34 40.704809 -75.284128 238 39887ft 437kts
02-Jun-18 18:35 40.704809 -75.284128 238 39887ft 437kts
02-Jun-18 18:36 40.704809 -75.284128 238 39887ft 437kts
02-Jun-18 18:37 40.704809 -75.284128 238 39887ft 437kts
02-Jun-18 18:38 40.704809 -75.284128 238 39887ft 437kts
02-Jun-18 18:39 40.704809 -75.284128 238 39887ft 437kts
02-Jun-18 18:40 40.704809 -75.284128 238 39887ft 437kts
02-Jun-18 18:41 40.704809 -75.284128 238 39887ft 437kts
02-Jun-18 18:42 40.704809 -75.284128 238 39887ft 437kts
02-Jun-18 18:43 40.704809 -75.284128 238 39887ft 437kts
02-Jun-18 18:44 40.704809 -75.284128 238 39887ft 437kts
02-Jun-18 18:45 40.704809 -75.284128 238 39887ft 437kts
02-Jun-18 18:46 40.704809 -75.284128 238 39887ft 437kts
02-Jun-18 18:47 40.704809 -75.284128 238 39887ft 437kts
02-Jun-18 18:48 40.704809 -75.284128 238 39887ft 437kts
02-Jun-18 18:49 40.704809 -75.284128 238 39887ft 437kts
02-Jun-18 18:50 40.704809 -75.284128 238 39887ft 437kts
02-Jun-18 18:51 40.704809 -75.284128 238 39887ft 437kts
02-Jun-18 18:52 40.704809 -75.284128 238 39887ft 437kts
02-Jun-18 18:53 40.704809 -75.284128 238 39887ft 437kts
02-Jun-18 18:54 40.704809 -75.284128 238 39887ft 437kts
02-Jun-18 18:55 40.704809 -75.284128 238 39887ft 437kts
02-Jun-18 18:56 40.704809 -75.284128 238 39887ft 437kts
02-Jun-18 18:57 40.704809 -75.284128 238 39887ft 437kts
02-Jun-18 18:58 40.704809 -75.284128 238 39887ft 437kts
02-Jun-18 18:59 40.704809 -75.284128 238 39887ft 437kts
02-Jun-18 19:00 40.704809 -75.284128 238 39887ft 437kts
02-Jun-18 19:01 40.704809 -75.284128 238 39887ft 437kts
02-Jun-18 19:02 40.704809 -75.284128 238 39887ft 437kts
02-Jun-18 19:03 40.704809 -75.284128 238 39887ft 437kts
02-Jun-18 19:04 40.704809 -75.284128 238 39887ft 437kts
02-Jun-18 19:05 40.704809 -75.284128 238 39887ft 437kts
02-Jun-18 19:06 40.704809 -75.284128 238 39887ft 437kts
02-Jun-18 19:07 40.704809 -75.284128 238 39887ft 437kts
02-Jun-18 19:08 40.704809 -75.284128 238 39887ft 437kts
02-Jun-18 19:09 40.704809 -75.284128 238 39887ft 437kts
02-Jun-18 19:10 40.704809 -75.284128 238 39887ft 437kts
02-Jun-18 19:11 40.704809 -75.284128 238 39887ft 437kts
02-Jun-18 19:12 40.704809 -75.284128 238 39887ft 437kts
02-Jun-18 19:13 40.704809 -75.284128 238 39887ft 437kts
02-Jun-18 19:14 40.704809 -75.284128 238 39887ft 437kts
02-Jun-18 19:15 40.704809 -75.284128 238 39887ft 437kts
02-Jun-18 19:16 40.704809 -75.284128 238 39887ft 437kts
02-Jun-18 19:17 40.704809 -75.284128 238 39887ft 437kts
02-Jun-18 19:18 40.704809 -75.284128 238 39887ft 437kts
02-Jun-18 19:19 40.704809 -75.284128 238 39887ft 437kts
02-Jun-18 19:20 40.704809 -75.284128 238 39887ft 437kts
02-Jun-18 19:21 40.704809 -75.284128 238 39887ft 437kts
02-Jun-18 19:22 40.704809 -75.284128 238 39887ft 437kts
02-Jun-18 19:23 40.704809 -75.284128 238 39887ft 437kts
02-Jun-18 19:24 40.704809 -75.284128 238 39887ft 437kts
02-Jun-18 19:25 40.704809 -75.284128 238 39887ft 437kts
02-Jun-18 19:26 40.704809 -75.284128 238 39887ft 437kts
02-Jun-18 19:27 40.704809 -75.284128 238 39887ft 437kts
02-Jun-18 19:28 40.704809 -75.284128 238 39887ft 437kts
02-Jun-18 19:29 40.704809 -75.284128 238 39887ft 437kts
02-Jun-18 19:30 40.704809 -75.284128 238 39887ft 437kts
02-Jun-18 19:31 40.704809 -75.284128 238 39887ft 437kts
02-Jun-18 19:32 40.704809 -75.284128 238 39887ft 437kts
02-Jun-18 19:33 40.704809 -75.284128 238 39887ft 437kts
02-Jun-18 19:34 40.704809 -75.284128 238 39887ft 437kts
02-Jun-18 19:35 40.704809 -75.284128 238 39887ft 437kts
02-Jun-18 19:36 40.704809 -75.284128 238 39887ft 437kts
02-Jun-18 19:37 40.704809 -75.284128 238 39887ft 437kts
02-Jun-18 19:38 40.704809 -75.284128 238 39887ft 437kts
02-Jun-18 19:39 40.704809 -75.284128 238 39887ft 437kts
02-Jun-18 19:40 40.704809 -75.284128 238 39887ft 437kts
02-Jun-18 19:41 40.704809 -75.284128 238 39887ft 437kts
02-Jun-18 19:42 40.704809 -75.284128 238 39887ft 437kts
02-Jun-18 19:43 40.704809 -75.284128 238 39887ft 437kts
02-Jun-18 19:44 40.704809 -75.284128 238 39887ft 437kts
02-Jun-18 19:45 40.704809 -75.284128 238 39887ft 437kts
02-Jun-18 19:46 40.704809 -75.284128 238 39887ft 437kts
02-Jun-18 19:47 40.704809 -75.284128 238 39887ft 437kts
02-Jun-18 19:48 40.704809 -75.284128 238 39887ft 437kts
02-Jun-18 19:49 40.704809 -75.284128 238 39887ft 437kts
02-Jun-18 19:50 40.704809 -75.284128 238 39887ft 437kts
02-Jun-18 19:51 40.704809 -75.284128 238 39887ft 437kts
02-Jun-18 19:52 40.704809 -75.284128 238 39887ft 437kts
02-Jun-18 19:53 40.704809 -75.284128 238 39887ft 437kts
02-Jun-18 19:54 40.704809 -75.284128 238 39887ft 437kts
02-Jun-18 19:55 40.704809 -75.284128 238 39887ft 437kts
02-Jun-18 19:56 40.704809 -75.284128 238 39887ft 437kts
02-Jun-18 19:57 40.704809 -75.284128 238 39887ft 437kts
02-Jun-18 19:58 40.704809 -75.284128 238 39887ft 437kts
02-Jun-18 19:59 40.704809 -75.284128 238 39887ft 437kts
02-Jun-18 20:00 40.704809 -75.284128 238 39887ft 437kts
02-Jun-18 20:01 40.678610 -75.339187 239 39890ft 439kts
02-Jun-18 20:02 40.626502 -75.455819 241 37934ft 451kts
02-Jun-18 20:03 40.563581 -75.601950 240 34923ft 464kts
02-Jun-18 20:04 40.499211 -75.750382 240 31919ft 471kts
02-Jun-18 20:05 40.428238 -75.894782 232 28937ft 471kts
02-Jun-18 20:06 40.337405 -76.016291 217 25932ft 460kts
02-Jun-18 20:07 40.222164 -76.070786 178 23512ft 438kts
02-Jun-18 20:08 40.108764 -76.034438 165 22836ft 408kts
02-Jun-18 20:09 40.007033 -76.067587 233 22500ft 399kts
02-Jun-18 20:10 39.952564 -76.195748 238 21879ft 408kts
02-Jun-18 20:11 39.895362 -76.323087 238 21119ft 406kts
02-Jun-18 20:12 39.827546 -76.439892 228 19520ft 398kts
02-Jun-18 20:13 39.757004 -76.549697 228 18180ft 393kts
02-Jun-18 20:14 39.685542 -76.653848 219 16763ft 377kts
02-Jun-18 20:15 39.594846 -76.715856 195 16400ft 365kts
02-Jun-18 20:16 39.496388 -76.710059 163 16116ft 350kts
02-Jun-18 20:17 39.403634 -76.680856 173 15376ft 338kts
02-Jun-18 20:18 39.311138 -76.669364 168 13889ft 332kts
02-Jun-18 20:19 39.222177 -76.651072 168 12380ft 310kts
02-Jun-18 20:20 39.138521 -76.634086 168 10878ft 300kts
02-Jun-18 20:21 39.058121 -76.636969 206 9583ft 293kts
02-Jun-18 20:22 38.988262 -76.690804 208 8960ft 292kts
02-Jun-18 20:23 38.919099 -76.745753 213 8963ft 292kts
02-Jun-18 20:24 38.865363 -76.824198 228 8967ft 295kts
02-Jun-18 20:25 38.812784 -76.905957 228 8964ft 296kts
02-Jun-18 20:26 38.784343 -77.004164 253 7900ft 298kts
02-Jun-18 20:27 38.762145 -77.106965 253 6381ft 298kts
02-Jun-18 20:28 38.740490 -77.206048 254 5092ft 282kts
02-Jun-18 20:29 38.734673 -77.296410 297 4285ft 240kts
02-Jun-18 20:30 38.759624 -77.369323 294 3577ft 200kts
02-Jun-18 20:31 38.782249 -77.426447 309 3022ft 165kts
02-Jun-18 20:32 38.818972 -77.439393 7 2383ft 145kts
02-Jun-18 20:33 38.857548 -77.437429 1 1632ft 138kts
02-Jun-18 20:34 38.896033 -77.436831 0 900ft 138kts
02-Jun-18 20:35 38.933948 -77.436243 0 325ft 117kts
02-Jun-18 20:36 38.953375 -77.435979 358 325ft 20kts
02-Jun-18 20:37 38.951166 -77.438494 181 325ft 23kts
02-Jun-18 20:38 38.946563 -77.440446 270 325ft 18kts
02-Jun-18 20:39 38.945917 -77.442394 196 325ft 0kts
02-Jun-18 20:40 38.945888 -77.442405 196 325ft 0kts
02-Jun-18 20:41 38.945888 -77.442405 196 325ft 0kts
02-Jun-18 20:42 38.945888 -77.442405 196 325ft 0kts
02-Jun-18 20:43 38.945888 -77.442405 196 325ft 0kts
02-Jun-18 20:44 38.945888 -77.442405 196 325ft 0kts
02-Jun-18 20:45 38.945888 -77.442405 196 325ft 0kts
02-Jun-18 20:46 38.945888 -77.442405 196 325ft 0kts

Navigation Log

Ident Type
Flight plan parsing failed, navigation log unavailable